createdAt,value
2022-12-22T00:01:11.117Z,86.06
2022-12-22T00:03:01.979Z,86.10
2022-12-22T00:04:52.493Z,85.99
2022-12-22T00:06:43.371Z,85.83
2022-12-22T00:08:33.630Z,86.01
2022-12-22T00:10:24.342Z,86.04
2022-12-22T00:12:15.067Z,85.96
2022-12-22T00:14:05.940Z,86.13
2022-12-22T00:15:56.580Z,86.04
2022-12-22T00:17:47.741Z,86.16
2022-12-22T00:19:38.474Z,86.07
2022-12-22T00:21:31.698Z,85.93
2022-12-22T00:23:23.167Z,86.02
2022-12-22T00:25:14.013Z,85.72
2022-12-22T00:27:04.810Z,85.60
2022-12-22T00:28:55.522Z,85.81
2022-12-22T00:30:46.202Z,85.78
2022-12-22T00:32:39.322Z,85.74
2022-12-22T00:34:40.178Z,85.43
2022-12-22T00:36:31.698Z,85.60
2022-12-22T00:38:34.204Z,85.20
2022-12-22T00:40:35.624Z,85.22
2022-12-22T00:42:26.384Z,85.26
2022-12-22T00:44:16.969Z,85.09
2022-12-22T00:46:08.138Z,84.84
2022-12-22T00:47:58.468Z,85.06
2022-12-22T00:49:51.105Z,85.41
2022-12-22T00:51:41.812Z,85.62
2022-12-22T00:55:06.844Z,85.94
2022-12-22T00:56:57.508Z,86.04
2022-12-22T00:58:48.147Z,85.84
2022-12-22T01:00:39.073Z,85.84
2022-12-22T01:02:29.986Z,85.68
2022-12-22T01:04:20.656Z,85.67
2022-12-22T01:06:11.335Z,85.90
2022-12-22T01:08:02.054Z,85.81
2022-12-22T01:09:52.835Z,85.86
2022-12-22T01:11:43.586Z,85.87
2022-12-22T01:13:37.457Z,85.91
2022-12-22T01:15:33.290Z,85.80
2022-12-22T01:17:23.654Z,85.68
2022-12-22T01:19:14.217Z,85.47
2022-12-22T01:21:04.806Z,85.53
2022-12-22T01:22:55.406Z,85.70
2022-12-22T01:24:47.043Z,85.78
2022-12-22T01:26:38.740Z,85.79
2022-12-22T01:28:37.936Z,85.77
2022-12-22T01:30:29.543Z,85.88
2022-12-22T01:32:20.027Z,86.27
2022-12-22T01:34:10.683Z,86.38
2022-12-22T01:36:01.355Z,86.53
2022-12-22T01:37:52.074Z,86.56
2022-12-22T01:39:42.941Z,86.68
2022-12-22T01:41:38.366Z,86.52
2022-12-22T01:43:39.538Z,86.53
2022-12-22T01:45:41.404Z,86.30
2022-12-22T01:47:47.229Z,86.06
2022-12-22T01:49:41.414Z,85.94
2022-12-22T01:51:54.807Z,85.97
2022-12-22T01:53:46.732Z,85.91
2022-12-22T01:55:40.341Z,85.40
2022-12-22T01:57:30.605Z,85.36
2022-12-22T01:59:23.325Z,85.02
2022-12-22T02:01:13.726Z,84.93
2022-12-22T02:03:04.421Z,84.76
2022-12-22T02:04:59.754Z,84.67
2022-12-22T02:06:59.961Z,84.29
2022-12-22T02:08:55.664Z,84.00
2022-12-22T02:11:04.182Z,83.56
2022-12-22T02:13:17.430Z,83.50
2022-12-22T02:15:21.264Z,83.57
2022-12-22T02:17:20.658Z,83.56
2022-12-22T02:19:15.438Z,83.43
2022-12-22T02:21:12.147Z,83.12
2022-12-22T02:23:19.340Z,82.98
2022-12-22T02:25:16.974Z,82.82
2022-12-22T02:27:11.672Z,82.58
2022-12-22T02:29:03.257Z,82.71
2022-12-22T02:30:54.909Z,82.78
2022-12-22T02:32:45.693Z,82.90
2022-12-22T02:34:36.425Z,83.02
2022-12-22T02:36:55.658Z,82.86
2022-12-22T02:38:55.814Z,82.85
2022-12-22T02:41:09.402Z,82.65
2022-12-22T02:43:10.142Z,82.79
2022-12-22T02:45:57.923Z,82.77
2022-12-22T02:47:56.390Z,82.73
2022-12-22T02:50:00.402Z,83.06
2022-12-22T02:51:54.799Z,83.11
2022-12-22T02:53:46.097Z,82.96
2022-12-22T02:59:07.518Z,83.07
2022-12-22T03:00:58.802Z,83.39
2022-12-22T03:02:49.452Z,83.28
2022-12-22T03:04:40.418Z,82.91
2022-12-22T03:06:30.672Z,82.99
2022-12-22T03:08:21.034Z,82.88
2022-12-22T03:10:11.657Z,83.10
2022-12-22T03:12:02.109Z,83.29
2022-12-22T03:13:52.501Z,83.21
2022-12-22T03:15:43.049Z,83.23
2022-12-22T03:17:33.905Z,82.80
2022-12-22T03:19:24.233Z,82.90
2022-12-22T03:21:15.793Z,82.92
2022-12-22T03:23:06.250Z,82.65
2022-12-22T03:24:56.835Z,82.67
2022-12-22T03:26:29.513Z,82.66
2022-12-22T03:28:07.603Z,82.64
2022-12-22T03:29:39.609Z,82.62
2022-12-22T03:31:11.865Z,82.83
2022-12-22T03:32:43.903Z,82.94
2022-12-22T03:34:16.037Z,82.70
2022-12-22T03:35:48.045Z,82.67
2022-12-22T03:37:20.041Z,82.61
2022-12-22T03:38:52.124Z,82.67
2022-12-22T03:40:24.293Z,82.58
2022-12-22T03:42:22.299Z,82.66
2022-12-22T03:44:13.133Z,82.15
2022-12-22T03:46:03.560Z,81.83
2022-12-22T03:47:35.577Z,81.69
2022-12-22T03:49:10.324Z,81.79
2022-12-22T03:50:42.334Z,81.86
2022-12-22T03:52:14.326Z,81.65
2022-12-22T03:53:46.326Z,81.99
2022-12-22T03:55:18.297Z,82.19
2022-12-22T03:56:51.116Z,82.32
2022-12-22T03:58:23.215Z,82.46
2022-12-22T03:59:55.377Z,82.49
2022-12-22T04:01:27.527Z,82.44
2022-12-22T04:02:59.740Z,82.57
2022-12-22T04:04:31.962Z,82.72
2022-12-22T04:06:04.150Z,82.61
2022-12-22T04:07:36.352Z,82.55
2022-12-22T04:09:08.415Z,82.48
2022-12-22T04:11:01.909Z,82.19
2022-12-22T04:12:52.593Z,82.27
2022-12-22T04:14:28.112Z,81.99
2022-12-22T04:16:05.519Z,81.77
2022-12-22T04:17:37.486Z,81.75
2022-12-22T04:19:10.367Z,81.80
2022-12-22T04:20:42.340Z,81.81
2022-12-22T04:22:14.814Z,81.85
2022-12-22T04:23:49.089Z,82.02
2022-12-22T04:25:21.146Z,82.29
2022-12-22T04:26:53.193Z,82.39
2022-12-22T04:28:25.277Z,82.03
2022-12-22T04:29:57.297Z,81.77
2022-12-22T04:31:29.553Z,81.60
2022-12-22T04:33:01.576Z,81.65
2022-12-22T04:34:33.637Z,81.74
2022-12-22T04:36:06.076Z,81.79
2022-12-22T04:37:38.216Z,81.65
2022-12-22T04:39:10.301Z,81.49
2022-12-22T04:40:42.255Z,81.60
2022-12-22T04:42:14.288Z,81.65
2022-12-22T04:43:46.307Z,81.75
2022-12-22T04:45:18.366Z,81.79
2022-12-22T04:46:50.374Z,81.72
2022-12-22T04:48:23.182Z,81.53
2022-12-22T04:49:56.034Z,81.38
2022-12-22T04:51:28.902Z,81.66
2022-12-22T04:53:00.929Z,81.35
2022-12-22T04:54:33.041Z,81.14
2022-12-22T04:56:07.765Z,81.10
2022-12-22T04:57:41.092Z,81.07
2022-12-22T04:59:13.240Z,81.01
2022-12-22T05:00:45.300Z,81.18
2022-12-22T05:02:17.545Z,81.14
2022-12-22T05:03:49.797Z,81.17
2022-12-22T05:05:21.862Z,81.20
2022-12-22T05:06:53.928Z,81.24
2022-12-22T05:08:25.992Z,81.37
2022-12-22T05:09:58.021Z,81.52
2022-12-22T05:11:30.115Z,81.74
2022-12-22T05:13:02.168Z,81.86
2022-12-22T05:14:34.156Z,81.52
2022-12-22T05:16:07.549Z,81.52
2022-12-22T05:17:39.687Z,81.61
2022-12-22T05:19:12.005Z,81.61
2022-12-22T05:20:44.126Z,81.61
2022-12-22T05:22:16.154Z,81.40
2022-12-22T05:23:48.448Z,81.46
2022-12-22T05:25:20.805Z,81.20
2022-12-22T05:26:52.823Z,81.23
2022-12-22T05:28:24.881Z,81.24
2022-12-22T05:29:56.847Z,81.09
2022-12-22T05:31:28.897Z,81.28
2022-12-22T05:33:01.017Z,81.27
2022-12-22T05:34:32.995Z,81.06
2022-12-22T05:36:05.224Z,81.02
2022-12-22T05:37:37.233Z,80.88
2022-12-22T05:39:09.463Z,80.76
2022-12-22T05:40:41.450Z,80.90
2022-12-22T05:42:13.445Z,80.90
2022-12-22T05:43:45.453Z,81.10
2022-12-22T05:45:19.619Z,81.29
2022-12-22T05:46:55.054Z,81.34
2022-12-22T05:48:30.984Z,81.33
2022-12-22T05:50:07.915Z,81.23
2022-12-22T05:51:39.878Z,81.22
2022-12-22T05:53:12.022Z,80.96
2022-12-22T05:54:44.093Z,80.97
2022-12-22T05:56:16.309Z,80.76
2022-12-22T05:57:48.312Z,80.63
2022-12-22T05:59:20.327Z,80.64
2022-12-22T06:00:52.461Z,80.71
2022-12-22T06:02:24.844Z,80.93
2022-12-22T06:04:00.405Z,80.94
2022-12-22T06:05:32.998Z,81.16
2022-12-22T06:07:05.093Z,81.15
2022-12-22T06:08:37.142Z,81.19
2022-12-22T06:10:12.677Z,81.22
2022-12-22T06:11:45.258Z,81.21
2022-12-22T06:13:17.388Z,81.51
2022-12-22T06:14:49.469Z,81.55
2022-12-22T06:16:21.609Z,81.86
2022-12-22T06:17:53.654Z,81.92
2022-12-22T06:19:25.785Z,82.08
2022-12-22T06:20:57.953Z,82.23
2022-12-22T06:22:30.042Z,82.36
2022-12-22T06:25:34.961Z,82.74
2022-12-22T06:27:07.021Z,82.79
2022-12-22T06:28:39.052Z,82.98
2022-12-22T06:30:11.412Z,83.08
2022-12-22T06:31:43.545Z,83.03
2022-12-22T06:33:15.741Z,83.04
2022-12-22T06:34:47.839Z,82.99
2022-12-22T06:36:20.135Z,82.96
2022-12-22T06:37:52.123Z,83.08
2022-12-22T06:39:26.575Z,83.07
2022-12-22T06:40:58.584Z,83.15
2022-12-22T06:42:49.390Z,83.00
2022-12-22T06:44:21.463Z,83.22
2022-12-22T06:45:54.167Z,83.23
2022-12-22T06:47:26.206Z,83.32
2022-12-22T06:48:58.211Z,83.39
2022-12-22T06:50:30.579Z,83.50
2022-12-22T06:52:02.571Z,83.58
2022-12-22T06:55:07.903Z,83.65
2022-12-22T06:56:40.040Z,83.69
2022-12-22T06:58:12.271Z,83.86
2022-12-22T06:59:44.326Z,83.96
2022-12-22T07:01:16.586Z,84.09
2022-12-22T07:02:48.900Z,84.01
2022-12-22T07:04:21.898Z,84.20
2022-12-22T07:05:53.972Z,84.21
2022-12-22T07:07:26.140Z,84.32
2022-12-22T07:08:58.196Z,84.50
2022-12-22T07:10:48.792Z,84.51
2022-12-22T07:12:20.778Z,84.62
2022-12-22T07:13:52.968Z,84.79
2022-12-22T07:15:24.983Z,84.77
2022-12-22T07:16:56.998Z,84.74
2022-12-22T07:18:33.940Z,84.84
2022-12-22T07:20:06.375Z,84.93
2022-12-22T07:21:38.381Z,85.21
2022-12-22T07:24:50.611Z,85.03
2022-12-22T07:26:22.770Z,85.04
2022-12-22T07:27:54.837Z,85.16
2022-12-22T07:29:26.930Z,85.23
2022-12-22T07:30:59.007Z,85.45
2022-12-22T07:32:31.043Z,85.50
2022-12-22T07:34:03.161Z,85.54
2022-12-22T07:35:35.230Z,85.49
2022-12-22T07:37:07.343Z,85.15
2022-12-22T07:38:42.823Z,85.16
2022-12-22T07:40:15.266Z,84.96
2022-12-22T07:42:25.929Z,85.27
2022-12-22T07:44:02.538Z,84.97
2022-12-22T07:45:34.863Z,84.92
2022-12-22T07:47:06.982Z,84.67
2022-12-22T07:48:57.808Z,84.57
2022-12-22T07:50:30.006Z,84.55
2022-12-22T07:52:02.043Z,84.32
2022-12-22T07:53:35.402Z,84.31
2022-12-22T07:55:08.326Z,84.38
2022-12-22T07:58:25.896Z,84.35
2022-12-22T07:59:57.918Z,84.34
2022-12-22T08:01:30.081Z,84.26
2022-12-22T08:03:02.958Z,84.11
2022-12-22T08:04:35.213Z,83.99
2022-12-22T08:06:07.747Z,83.70
2022-12-22T08:07:39.946Z,83.63
2022-12-22T08:09:15.848Z,83.48
2022-12-22T08:10:47.878Z,83.22
2022-12-22T08:12:20.129Z,82.97
2022-12-22T08:13:57.372Z,82.78
2022-12-22T08:15:33.351Z,82.62
2022-12-22T08:17:05.485Z,82.56
2022-12-22T08:18:38.335Z,82.51
2022-12-22T08:20:10.800Z,82.67
2022-12-22T08:21:48.556Z,82.46
2022-12-22T08:23:24.437Z,82.45
2022-12-22T08:24:57.390Z,82.23
2022-12-22T08:26:33.497Z,82.02
2022-12-22T08:28:05.510Z,81.68
2022-12-22T08:29:42.658Z,81.11
2022-12-22T08:31:14.811Z,80.90
2022-12-22T08:32:49.527Z,80.51
2022-12-22T08:34:21.790Z,80.28
2022-12-22T08:35:56.000Z,80.12
2022-12-22T08:37:29.980Z,80.06
2022-12-22T08:39:02.199Z,79.96
2022-12-22T08:40:34.487Z,79.73
2022-12-22T08:42:08.255Z,79.69
2022-12-22T08:43:40.394Z,79.68
2022-12-22T08:45:14.861Z,79.52
2022-12-22T08:46:47.776Z,79.40
2022-12-22T08:48:19.828Z,79.28
2022-12-22T08:49:51.946Z,79.34
2022-12-22T08:51:24.027Z,78.95
2022-12-22T08:53:06.690Z,78.55
2022-12-22T08:54:38.825Z,78.33
2022-12-22T08:56:10.845Z,77.47
2022-12-22T08:57:42.859Z,77.19
2022-12-22T08:59:15.176Z,77.07
2022-12-22T09:00:47.401Z,76.68
2022-12-22T09:02:19.472Z,76.78
2022-12-22T09:03:52.829Z,76.36
2022-12-22T09:05:25.012Z,76.42
2022-12-22T09:06:57.015Z,76.36
2022-12-22T09:08:29.256Z,76.54
2022-12-22T09:10:01.458Z,76.40
2022-12-22T09:11:34.203Z,75.70
2022-12-22T09:13:06.297Z,75.43
2022-12-22T09:14:38.380Z,75.52
2022-12-22T09:16:10.849Z,75.50
2022-12-22T09:17:44.012Z,75.94
2022-12-22T09:19:16.113Z,76.20
2022-12-22T09:20:48.217Z,75.87
2022-12-22T09:22:26.755Z,75.13
2022-12-22T09:24:00.376Z,75.03
2022-12-22T09:27:06.894Z,74.73
2022-12-22T09:28:41.688Z,74.89
2022-12-22T09:30:17.410Z,74.74
2022-12-22T09:31:49.507Z,74.17
2022-12-22T09:33:21.630Z,74.45
2022-12-22T09:34:53.637Z,74.19
2022-12-22T09:36:30.730Z,74.52
2022-12-22T09:38:02.819Z,73.63
2022-12-22T09:39:34.790Z,74.13
2022-12-22T09:41:29.478Z,73.79
2022-12-22T09:43:01.793Z,72.82
2022-12-22T09:44:36.761Z,72.42
2022-12-22T09:46:19.124Z,71.22
2022-12-22T09:47:55.373Z,70.60
2022-12-22T09:49:28.041Z,70.28
2022-12-22T09:51:02.246Z,69.84
2022-12-22T09:52:34.292Z,70.25
2022-12-22T09:54:06.474Z,70.55
2022-12-22T09:55:42.347Z,70.04
2022-12-22T09:57:14.494Z,69.06
2022-12-22T09:58:47.562Z,69.23
2022-12-22T10:00:22.801Z,68.71
2022-12-22T10:02:20.477Z,68.20
2022-12-22T10:04:01.187Z,67.50
2022-12-22T10:05:38.642Z,66.38
2022-12-22T10:07:33.725Z,66.77
2022-12-22T10:12:59.502Z,66.04
2022-12-22T10:14:34.899Z,64.88
2022-12-22T10:16:20.213Z,64.49
2022-12-22T10:18:09.463Z,64.94
2022-12-22T10:19:41.864Z,65.03
2022-12-22T10:21:15.775Z,65.61
2022-12-22T10:22:51.258Z,64.63
2022-12-22T10:24:36.104Z,62.79
2022-12-22T10:26:28.197Z,63.10
2022-12-22T10:28:13.028Z,63.31
2022-12-22T10:29:45.185Z,63.11
2022-12-22T10:31:26.722Z,62.53
2022-12-22T10:33:15.691Z,60.75
2022-12-22T10:35:06.287Z,62.39
2022-12-22T10:36:41.870Z,61.97
2022-12-22T10:38:21.243Z,61.51
2022-12-22T10:39:54.194Z,62.21
2022-12-22T10:41:29.377Z,61.79
2022-12-22T10:43:02.658Z,61.61
2022-12-22T10:44:35.939Z,58.79
2022-12-22T10:46:08.126Z,59.56
2022-12-22T10:47:47.554Z,60.53
2022-12-22T10:49:25.666Z,59.81
2022-12-22T10:50:58.537Z,58.79
2022-12-22T10:52:32.355Z,60.29
2022-12-22T10:54:04.873Z,58.79
2022-12-22T10:55:39.465Z,60.75
2022-12-22T10:57:14.089Z,59.69
2022-12-22T10:58:56.100Z,59.62
2022-12-22T11:00:30.007Z,60.00
2022-12-22T11:02:23.209Z,58.85
2022-12-22T11:03:55.465Z,57.62
2022-12-22T11:05:28.293Z,59.41
2022-12-22T11:07:00.633Z,58.03
2022-12-22T11:08:32.737Z,57.17
2022-12-22T11:10:23.534Z,53.10
2022-12-22T11:12:09.428Z,52.70
2022-12-22T11:13:53.583Z,52.29
2022-12-22T11:15:38.108Z,50.93
2022-12-22T11:17:28.106Z,51.83
2022-12-22T11:19:03.969Z,52.23
2022-12-22T11:21:04.043Z,51.58
2022-12-22T11:22:44.769Z,53.77
2022-12-22T11:24:41.096Z,54.32
2022-12-22T11:26:23.315Z,53.59
2022-12-22T11:28:27.290Z,52.86
2022-12-22T11:30:03.584Z,51.94
2022-12-22T11:31:57.502Z,52.82
2022-12-22T11:33:35.327Z,52.82
2022-12-22T11:35:58.561Z,50.96
2022-12-22T11:37:45.399Z,50.04
2022-12-22T11:39:26.602Z,52.42
2022-12-22T11:41:16.531Z,52.84
2022-12-22T11:43:03.498Z,52.73
2022-12-22T11:44:38.877Z,52.67
2022-12-22T11:46:31.614Z,51.39
2022-12-22T11:48:22.304Z,52.79
2022-12-22T11:51:50.140Z,53.20
2022-12-22T11:53:47.260Z,50.79
2022-12-22T11:55:22.143Z,50.44
2022-12-22T11:57:10.558Z,50.94
2022-12-22T11:59:01.157Z,51.80
2022-12-22T12:01:12.175Z,52.44
2022-12-22T12:02:54.088Z,52.50
2022-12-22T12:04:56.843Z,52.26
2022-12-22T12:06:31.798Z,51.64
2022-12-22T12:08:29.892Z,51.73
2022-12-22T12:10:22.638Z,52.33
2022-12-22T12:12:21.670Z,51.44
2022-12-22T12:14:14.018Z,51.54
2022-12-22T12:16:04.645Z,51.19
2022-12-22T12:18:27.093Z,50.83
2022-12-22T12:20:08.486Z,50.74
2022-12-22T12:21:53.112Z,50.65
2022-12-22T12:23:43.018Z,51.09
2022-12-22T12:25:44.123Z,51.02
2022-12-22T12:27:35.011Z,50.89
2022-12-22T12:29:27.985Z,50.81
2022-12-22T12:31:01.520Z,50.76
2022-12-22T12:32:58.271Z,50.58
2022-12-22T12:34:33.230Z,51.46
2022-12-22T12:36:24.827Z,51.14
2022-12-22T12:40:40.101Z,52.16
2022-12-22T12:42:31.872Z,51.61
2022-12-22T12:44:04.314Z,51.50
2022-12-22T12:45:44.523Z,51.43
2022-12-22T12:47:30.042Z,51.67
2022-12-22T12:49:02.161Z,51.48
2022-12-22T12:50:35.367Z,51.68
2022-12-22T12:52:08.872Z,52.13
2022-12-22T12:53:40.727Z,51.88
2022-12-22T12:55:53.407Z,53.32
2022-12-22T12:57:27.887Z,52.83
2022-12-22T13:50:28.062Z,54.05
2022-12-22T13:52:05.235Z,54.09
2022-12-22T13:54:07.062Z,54.58
2022-12-22T13:55:33.753Z,55.01
2022-12-22T13:57:15.611Z,55.03
2022-12-22T13:58:52.508Z,55.04
2022-12-22T14:00:26.773Z,55.15
2022-12-22T14:02:17.724Z,55.11
2022-12-22T14:04:01.349Z,55.24
2022-12-22T14:05:34.605Z,55.87
2022-12-22T14:07:13.028Z,55.77
2022-12-22T14:08:45.216Z,56.13
2022-12-22T14:10:26.758Z,56.41
2022-12-22T14:12:13.632Z,56.45
2022-12-22T14:13:45.906Z,56.77
2022-12-22T14:15:19.991Z,57.07
2022-12-22T14:16:54.417Z,57.34
2022-12-22T14:18:27.285Z,57.19
2022-12-22T14:20:01.172Z,57.56
2022-12-22T14:21:33.233Z,57.69
2022-12-22T14:23:08.412Z,57.58
2022-12-22T14:24:49.426Z,57.73
2022-12-22T14:26:26.429Z,57.48
2022-12-22T14:27:59.106Z,57.72
2022-12-22T14:29:31.422Z,57.72
2022-12-22T14:31:04.710Z,58.13
2022-12-22T14:32:42.186Z,58.74
2022-12-22T14:34:25.979Z,59.17
2022-12-22T14:36:24.223Z,60.20
2022-12-22T14:38:19.751Z,59.87
2022-12-22T14:39:57.879Z,60.32
2022-12-22T14:41:42.278Z,61.17
2022-12-22T14:43:27.228Z,61.06
2022-12-22T14:45:00.061Z,61.07
2022-12-22T14:46:38.402Z,61.56
2022-12-22T14:48:18.898Z,61.65
2022-12-22T14:50:04.774Z,62.47
2022-12-22T14:51:36.965Z,62.91
2022-12-22T14:53:13.469Z,63.12
2022-12-22T14:54:50.937Z,63.20
2022-12-22T14:56:23.172Z,63.54
2022-12-22T14:58:11.804Z,63.79
2022-12-22T15:00:01.470Z,63.71
2022-12-22T15:01:33.612Z,63.86
2022-12-22T15:03:25.923Z,63.71
2022-12-22T15:05:35.710Z,63.96
2022-12-22T15:07:45.725Z,64.52
2022-12-22T15:10:03.739Z,64.37
2022-12-22T15:11:18.641Z,64.42
2022-12-22T15:12:51.736Z,64.72
2022-12-22T15:14:26.216Z,64.97
2022-12-22T15:15:58.258Z,65.28
2022-12-22T15:17:30.311Z,65.33
2022-12-22T15:19:02.377Z,65.45
2022-12-22T15:20:39.197Z,65.67
2022-12-22T15:22:12.662Z,66.32
2022-12-22T15:23:44.986Z,66.30
2022-12-22T15:25:19.772Z,66.80
2022-12-22T15:26:52.033Z,67.02
2022-12-22T15:28:24.355Z,67.78
2022-12-22T15:29:56.468Z,67.44
2022-12-22T15:31:28.526Z,67.97
2022-12-22T15:33:00.792Z,68.33
2022-12-22T15:34:33.213Z,68.86
2022-12-22T15:36:06.502Z,68.60
2022-12-22T15:37:38.513Z,68.59
2022-12-22T15:39:20.459Z,68.96
2022-12-22T15:40:52.939Z,69.52
2022-12-22T15:42:25.033Z,69.39
2022-12-22T15:43:58.781Z,69.65
2022-12-22T15:45:31.302Z,69.71
2022-12-22T15:47:03.380Z,69.92
2022-12-22T15:48:37.124Z,70.41
2022-12-22T15:50:14.786Z,70.17
2022-12-22T15:51:53.803Z,70.06
2022-12-22T15:53:25.869Z,70.23
2022-12-22T15:54:58.299Z,70.39
2022-12-22T15:56:32.471Z,70.57
2022-12-22T15:58:04.688Z,71.26
2022-12-22T15:59:36.768Z,71.34
2022-12-22T16:01:12.086Z,71.87
2022-12-22T16:02:44.392Z,72.08
2022-12-22T16:04:17.377Z,72.39
2022-12-22T16:05:49.405Z,72.43
2022-12-22T16:07:21.545Z,72.20
2022-12-22T16:08:53.922Z,72.22
2022-12-22T16:10:28.091Z,71.94
2022-12-22T16:12:00.223Z,72.42
2022-12-22T16:13:32.517Z,72.83
2022-12-22T16:15:04.875Z,72.83
2022-12-22T16:16:37.087Z,72.97
2022-12-22T16:18:11.673Z,73.07
2022-12-22T16:19:45.544Z,73.21
2022-12-22T16:23:06.923Z,73.69
2022-12-22T16:24:39.827Z,73.85
2022-12-22T16:26:17.280Z,73.51
2022-12-22T16:27:49.856Z,73.22
2022-12-22T16:29:23.101Z,73.94
2022-12-22T16:30:55.181Z,74.02
2022-12-22T16:32:32.367Z,74.31
2022-12-22T16:34:05.129Z,74.40
2022-12-22T16:35:37.321Z,74.48
2022-12-22T16:37:09.526Z,74.47
2022-12-22T16:38:41.757Z,74.37
2022-12-22T16:40:13.993Z,74.33
2022-12-22T16:41:46.129Z,74.64
2022-12-22T16:43:49.136Z,74.27
2022-12-22T16:45:27.342Z,74.39
2022-12-22T16:46:59.525Z,74.90
2022-12-22T16:48:35.579Z,75.20
2022-12-22T16:50:17.611Z,75.38
2022-12-22T16:51:53.984Z,75.49
2022-12-22T16:53:26.043Z,75.79
2022-12-22T16:54:58.228Z,76.06
2022-12-22T16:56:31.640Z,76.10
2022-12-22T16:58:13.012Z,76.32
2022-12-22T16:59:45.845Z,76.06
2022-12-22T17:01:22.781Z,76.23
2022-12-22T17:03:13.952Z,76.13
2022-12-22T17:04:46.200Z,76.58
2022-12-22T17:06:19.488Z,76.49
2022-12-22T17:07:51.761Z,76.20
2022-12-22T17:09:28.282Z,76.43
2022-12-22T17:11:10.115Z,76.46
2022-12-22T17:12:43.176Z,76.24
2022-12-22T17:14:18.187Z,76.75
2022-12-22T17:15:50.240Z,76.67
2022-12-22T17:17:30.365Z,77.14
2022-12-22T17:19:06.402Z,77.19
2022-12-22T17:20:38.609Z,77.51
2022-12-22T17:22:29.900Z,77.48
2022-12-22T17:24:05.040Z,77.66
2022-12-22T17:25:37.102Z,77.56
2022-12-22T17:27:11.778Z,77.63
2022-12-22T17:28:44.251Z,77.95
2022-12-22T17:30:22.345Z,78.05
2022-12-22T17:31:57.060Z,78.34
2022-12-22T17:33:29.367Z,78.50
2022-12-22T17:35:01.453Z,78.58
2022-12-22T17:36:37.777Z,78.58
2022-12-22T17:38:18.223Z,78.62
2022-12-22T17:40:01.633Z,78.90
2022-12-22T17:41:33.811Z,78.93
2022-12-22T17:43:05.883Z,78.86
2022-12-22T17:44:38.003Z,78.97
2022-12-22T17:46:15.435Z,79.12
2022-12-22T17:47:50.774Z,79.40
2022-12-22T17:49:22.961Z,79.63
2022-12-22T17:50:57.875Z,79.60
2022-12-22T17:52:30.374Z,79.61
2022-12-22T17:54:02.651Z,79.84
2022-12-22T17:56:07.135Z,79.72
2022-12-22T17:57:30.726Z,79.62
2022-12-22T17:59:02.901Z,79.71
2022-12-22T18:00:35.248Z,79.59
2022-12-22T18:02:17.311Z,79.41
2022-12-22T18:03:49.724Z,79.72
2022-12-22T18:05:24.114Z,79.90
2022-12-22T18:06:56.402Z,80.02
2022-12-22T18:08:28.483Z,80.21
2022-12-22T18:10:01.285Z,80.10
2022-12-22T18:11:34.073Z,80.10
2022-12-22T18:13:17.865Z,79.97
2022-12-22T18:14:49.989Z,80.22
2022-12-22T18:16:23.399Z,80.30
2022-12-22T18:17:55.966Z,80.29
2022-12-22T18:19:28.127Z,80.28
2022-12-22T18:22:35.050Z,80.56
2022-12-22T18:24:10.164Z,80.71
2022-12-22T18:25:42.322Z,80.53
2022-12-22T18:27:14.566Z,80.42
2022-12-22T18:28:46.843Z,80.56
2022-12-22T18:30:24.339Z,80.52
2022-12-22T18:31:56.502Z,80.35
2022-12-22T18:33:28.702Z,80.31
2022-12-22T18:35:00.826Z,80.37
2022-12-22T18:36:34.510Z,80.19
2022-12-22T18:38:18.866Z,80.32
2022-12-22T18:39:50.996Z,80.43
2022-12-22T18:41:24.524Z,80.31
2022-12-22T18:42:56.834Z,80.38
2022-12-22T18:44:31.161Z,80.38
2022-12-22T18:46:03.288Z,80.48
2022-12-22T18:47:35.608Z,80.62
2022-12-22T18:49:07.782Z,80.49
2022-12-22T18:52:21.038Z,80.60
2022-12-22T18:53:54.115Z,80.63
2022-12-22T18:55:28.232Z,80.55
2022-12-22T18:57:00.397Z,80.56
2022-12-22T18:58:32.467Z,80.67
2022-12-22T19:00:11.502Z,80.58
2022-12-22T19:01:45.773Z,80.75
2022-12-22T19:03:23.413Z,80.83
2022-12-22T19:04:56.748Z,80.96
2022-12-22T19:06:28.981Z,81.02
2022-12-22T19:08:01.108Z,81.13
2022-12-22T19:09:33.133Z,81.07
2022-12-22T19:11:06.994Z,81.11
2022-12-22T19:12:39.012Z,81.39
2022-12-22T19:14:17.429Z,81.44
2022-12-22T19:15:49.851Z,81.47
2022-12-22T19:17:25.244Z,81.62
2022-12-22T19:18:58.187Z,81.23
2022-12-22T19:20:30.198Z,81.39
2022-12-22T19:22:02.244Z,81.10
2022-12-22T19:23:34.309Z,81.38
2022-12-22T19:25:06.491Z,81.31
2022-12-22T19:26:39.027Z,81.31
2022-12-22T19:28:31.845Z,81.07
2022-12-22T19:30:05.082Z,81.15
2022-12-22T19:31:38.402Z,81.12
2022-12-22T19:33:19.150Z,81.04
2022-12-22T19:34:51.519Z,81.14
2022-12-22T19:36:26.402Z,81.33
2022-12-22T19:38:01.000Z,81.23
2022-12-22T19:39:33.083Z,81.46
2022-12-22T19:41:05.673Z,81.29
2022-12-22T19:42:38.050Z,81.41
2022-12-22T19:44:28.074Z,81.43
2022-12-22T19:46:00.265Z,81.46
2022-12-22T19:47:35.339Z,81.76
2022-12-22T19:49:14.742Z,81.86
2022-12-22T19:50:47.633Z,81.81
2022-12-22T19:52:19.585Z,81.87
2022-12-22T19:55:33.116Z,82.05
2022-12-22T19:57:07.475Z,82.06
2022-12-22T19:58:40.511Z,82.08
2022-12-22T20:00:21.195Z,82.01
2022-12-22T20:01:53.525Z,82.06
2022-12-22T20:03:26.246Z,82.30
2022-12-22T20:04:59.039Z,82.38
2022-12-22T20:06:31.211Z,82.28
2022-12-22T20:08:03.510Z,82.18
2022-12-22T20:09:35.551Z,81.99
2022-12-22T20:11:17.641Z,82.19
2022-12-22T20:12:52.032Z,82.27
2022-12-22T20:14:24.157Z,82.32
2022-12-22T20:15:56.273Z,82.34
2022-12-22T20:17:28.283Z,82.32
2022-12-22T20:19:00.233Z,82.44
2022-12-22T20:20:34.834Z,82.30
2022-12-22T20:22:06.921Z,82.53
2022-12-22T20:23:39.672Z,82.31
2022-12-22T20:25:19.045Z,82.44
2022-12-22T20:26:54.515Z,82.40
2022-12-22T20:28:29.256Z,82.33
2022-12-22T20:30:01.596Z,82.15
2022-12-22T20:31:33.654Z,82.16
2022-12-22T20:33:05.708Z,82.24
2022-12-22T20:34:40.832Z,82.46
2022-12-22T20:36:24.137Z,82.34
2022-12-22T20:37:56.211Z,82.47
2022-12-22T20:39:28.200Z,82.34
2022-12-22T20:41:00.417Z,82.32
2022-12-22T20:42:32.416Z,82.15
2022-12-22T20:44:04.616Z,82.20
2022-12-22T20:45:36.697Z,82.19
2022-12-22T20:47:18.675Z,82.29
2022-12-22T20:48:56.425Z,82.19
2022-12-22T20:50:30.679Z,82.23
2022-12-22T20:52:02.667Z,82.21
2022-12-22T20:53:34.830Z,82.38
2022-12-22T20:55:07.101Z,82.49
2022-12-22T20:56:39.661Z,82.38
2022-12-22T20:58:23.841Z,82.51
2022-12-22T20:59:56.785Z,82.68
2022-12-22T21:01:31.752Z,82.47
2022-12-22T21:03:04.212Z,82.54
2022-12-22T21:04:36.268Z,82.36
2022-12-22T21:06:32.861Z,82.32
2022-12-22T21:08:07.039Z,82.39
2022-12-22T21:09:39.639Z,82.33
2022-12-22T21:11:11.732Z,82.30
2022-12-22T21:12:44.409Z,82.23
2022-12-22T21:14:16.886Z,82.04
2022-12-22T21:15:51.876Z,82.33
2022-12-22T21:17:23.966Z,82.53
2022-12-22T21:18:56.218Z,82.46
2022-12-22T21:20:30.506Z,82.56
2022-12-22T21:22:02.580Z,82.56
2022-12-22T21:23:34.725Z,82.56
2022-12-22T21:25:08.445Z,82.64
2022-12-22T21:26:43.251Z,82.73
2022-12-22T21:28:33.484Z,82.73
2022-12-22T21:30:16.050Z,82.72
2022-12-22T21:31:50.826Z,82.86
2022-12-22T21:33:23.798Z,82.88
2022-12-22T21:35:04.317Z,82.82
2022-12-22T21:36:39.833Z,82.77
2022-12-22T21:38:19.104Z,82.80
2022-12-22T21:39:51.077Z,82.71
2022-12-22T21:41:43.124Z,82.76
2022-12-22T21:43:15.975Z,82.85
2022-12-22T21:44:48.010Z,82.82
2022-12-22T21:46:20.119Z,82.91
2022-12-22T21:47:52.172Z,82.71
2022-12-22T21:49:26.503Z,82.54
2022-12-22T21:50:59.310Z,82.68
2022-12-22T21:52:31.455Z,82.88
2022-12-22T21:54:03.630Z,82.88
2022-12-22T21:55:37.755Z,82.92
2022-12-22T21:57:16.013Z,83.11
2022-12-22T21:58:48.349Z,83.02
2022-12-22T22:00:21.855Z,83.15
2022-12-22T22:01:54.361Z,83.08
2022-12-22T22:03:27.484Z,83.14
2022-12-22T22:04:59.613Z,83.00
2022-12-22T22:06:31.761Z,82.78
2022-12-22T22:08:06.462Z,82.60
2022-12-22T22:09:38.537Z,82.67
2022-12-22T22:11:24.682Z,82.32
2022-12-22T22:12:56.821Z,82.57
2022-12-22T22:14:28.932Z,82.72
2022-12-22T22:16:00.977Z,82.87
2022-12-22T22:17:33.135Z,82.99
2022-12-22T22:19:05.162Z,82.87
2022-12-22T22:20:37.183Z,83.12
2022-12-22T22:22:09.283Z,83.09
2022-12-22T22:23:41.623Z,83.22
2022-12-22T22:25:14.964Z,83.28
2022-12-22T22:26:47.164Z,83.41
2022-12-22T22:28:19.254Z,83.23
2022-12-22T22:29:51.275Z,83.34